sensor_id;sensor_type;location;lat;lon;timestamp;pressure;altitude;pressure_sealevel;temperature;humidity
1207;BME280;593;53.184;8.216;2023-04-19T00:00:39;102713.38;;;11.08;82.02
1207;BME280;593;53.184;8.216;2023-04-19T00:03:05;102717.78;;;11.09;82.52
1207;BME280;593;53.184;8.216;2023-04-19T00:05:30;102712.69;;;11.01;82.24
1207;BME280;593;53.184;8.216;2023-04-19T00:07:56;102712.09;;;10.99;82.90
1207;BME280;593;53.184;8.216;2023-04-19T00:10:22;102719.41;;;10.98;82.67
1207;BME280;593;53.184;8.216;2023-04-19T00:12:48;102714.94;;;10.92;83.04
1207;BME280;593;53.184;8.216;2023-04-19T00:15:13;102715.53;;;10.94;83.25
1207;BME280;593;53.184;8.216;2023-04-19T00:17:38;102711.59;;;10.90;83.05
1207;BME280;593;53.184;8.216;2023-04-19T00:20:04;102720.84;;;10.89;83.44
1207;BME280;593;53.184;8.216;2023-04-19T00:22:30;102715.25;;;10.84;83.49
1207;BME280;593;53.184;8.216;2023-04-19T00:24:56;102704.25;;;10.79;83.47
1207;BME280;593;53.184;8.216;2023-04-19T00:27:21;102714.06;;;10.80;83.54
1207;BME280;593;53.184;8.216;2023-04-19T00:29:47;102708.00;;;10.78;83.31
1207;BME280;593;53.184;8.216;2023-04-19T00:32:12;102700.56;;;10.73;83.29
1207;BME280;593;53.184;8.216;2023-04-19T00:34:37;102706.47;;;10.70;83.07
1207;BME280;593;53.184;8.216;2023-04-19T00:37:03;102705.03;;;10.68;83.19
1207;BME280;593;53.184;8.216;2023-04-19T00:39:29;102702.78;;;10.65;82.91
1207;BME280;593;53.184;8.216;2023-04-19T00:41:55;102708.22;;;10.65;82.89
1207;BME280;593;53.184;8.216;2023-04-19T00:44:22;102704.31;;;10.61;82.61
1207;BME280;593;53.184;8.216;2023-04-19T00:46:47;102697.91;;;10.55;81.96
1207;BME280;593;53.184;8.216;2023-04-19T00:49:13;102700.84;;;10.54;81.00
1207;BME280;593;53.184;8.216;2023-04-19T00:51:39;102698.22;;;10.47;81.58
1207;BME280;593;53.184;8.216;2023-04-19T00:54:05;102701.78;;;10.48;80.84
1207;BME280;593;53.184;8.216;2023-04-19T00:56:32;102703.06;;;10.45;80.51
1207;BME280;593;53.184;8.216;2023-04-19T00:58:58;102704.59;;;10.41;79.96
1207;BME280;593;53.184;8.216;2023-04-19T01:01:23;102710.03;;;10.41;79.21
1207;BME280;593;53.184;8.216;2023-04-19T01:03:49;102708.63;;;10.39;78.73
1207;BME280;593;53.184;8.216;2023-04-19T01:06:15;102709.06;;;10.36;77.89
1207;BME280;593;53.184;8.216;2023-04-19T01:08:40;102705.75;;;10.34;77.40
1207;BME280;593;53.184;8.216;2023-04-19T01:11:05;102707.75;;;10.26;77.00
1207;BME280;593;53.184;8.216;2023-04-19T01:13:32;102706.66;;;10.27;76.59
1207;BME280;593;53.184;8.216;2023-04-19T01:15:58;102706.91;;;10.26;76.54
1207;BME280;593;53.184;8.216;2023-04-19T01:18:23;102700.50;;;10.20;75.85
1207;BME280;593;53.184;8.216;2023-04-19T01:20:50;102704.88;;;10.21;75.93
1207;BME280;593;53.184;8.216;2023-04-19T01:23:15;102696.13;;;10.19;75.17
1207;BME280;593;53.184;8.216;2023-04-19T01:25:41;102699.06;;;10.18;74.58
1207;BME280;593;53.184;8.216;2023-04-19T01:28:06;102705.78;;;10.15;74.24
1207;BME280;593;53.184;8.216;2023-04-19T01:30:31;102691.41;;;10.08;74.07
1207;BME280;593;53.184;8.216;2023-04-19T01:32:57;102704.56;;;10.11;73.99
1207;BME280;593;53.184;8.216;2023-04-19T01:35:22;102705.84;;;10.09;73.64
1207;BME280;593;53.184;8.216;2023-04-19T01:37:47;102703.34;;;10.07;72.44
1207;BME280;593;53.184;8.216;2023-04-19T01:40:13;102698.97;;;10.06;72.38
1207;BME280;593;53.184;8.216;2023-04-19T01:42:38;102697.41;;;9.99;72.73
1207;BME280;593;53.184;8.216;2023-04-19T01:45:05;102703.69;;;9.99;72.91
1207;BME280;593;53.184;8.216;2023-04-19T01:47:30;102704.72;;;9.98;72.32
1207;BME280;593;53.184;8.216;2023-04-19T01:49:55;102702.44;;;9.95;72.60
1207;BME280;593;53.184;8.216;2023-04-19T01:52:21;102698.53;;;9.91;72.08
1207;BME280;593;53.184;8.216;2023-04-19T01:54:46;102700.66;;;9.89;72.13
1207;BME280;593;53.184;8.216;2023-04-19T01:57:11;102689.66;;;9.84;71.82
1207;BME280;593;53.184;8.216;2023-04-19T01:59:37;102691.72;;;9.82;71.62
1207;BME280;593;53.184;8.216;2023-04-19T02:02:05;102689.50;;;9.79;72.05
1207;BME280;593;53.184;8.216;2023-04-19T02:04:32;102692.22;;;9.79;72.01
1207;BME280;593;53.184;8.216;2023-04-19T02:06:58;102692.41;;;9.78;71.53
1207;BME280;593;53.184;8.216;2023-04-19T02:09:23;102691.00;;;9.75;72.04
1207;BME280;593;53.184;8.216;2023-04-19T02:11:49;102687.69;;;9.73;71.54
1207;BME280;593;53.184;8.216;2023-04-19T02:14:14;102687.28;;;9.69;71.06
1207;BME280;593;53.184;8.216;2023-04-19T02:16:40;102687.75;;;9.66;71.10
1207;BME280;593;53.184;8.216;2023-04-19T02:19:05;102696.34;;;9.63;70.52
1207;BME280;593;53.184;8.216;2023-04-19T02:21:31;102689.50;;;9.61;69.84
1207;BME280;593;53.184;8.216;2023-04-19T02:23:56;102694.31;;;9.59;69.55
1207;BME280;593;53.184;8.216;2023-04-19T02:26:22;102688.09;;;9.52;70.96
1207;BME280;593;53.184;8.216;2023-04-19T02:28:50;102690.81;;;9.52;70.56
1207;BME280;593;53.184;8.216;2023-04-19T02:31:16;102705.03;;;9.54;71.00
1207;BME280;593;53.184;8.216;2023-04-19T02:33:42;102703.81;;;9.50;70.74
1207;BME280;593;53.184;8.216;2023-04-19T02:36:08;102699.06;;;9.45;71.21
1207;BME280;593;53.184;8.216;2023-04-19T02:38:33;102703.06;;;9.43;70.67
1207;BME280;593;53.184;8.216;2023-04-19T02:40:58;102700.56;;;9.41;71.49
1207;BME280;593;53.184;8.216;2023-04-19T02:43:25;102702.44;;;9.41;71.49
1207;BME280;593;53.184;8.216;2023-04-19T02:45:51;102698.53;;;9.37;71.13
1207;BME280;593;53.184;8.216;2023-04-19T02:48:17;102704.78;;;9.37;71.88
1207;BME280;593;53.184;8.216;2023-04-19T02:50:42;102708.75;;;9.35;71.45
1207;BME280;593;53.184;8.216;2023-04-19T02:53:08;102704.25;;;9.29;71.63
1207;BME280;593;53.184;8.216;2023-04-19T02:55:33;102704.84;;;9.31;71.31
1207;BME280;593;53.184;8.216;2023-04-19T02:57:58;102697.75;;;9.30;71.83
1207;BME280;593;53.184;8.216;2023-04-19T03:00:24;102704.44;;;9.27;71.59
1207;BME280;593;53.184;8.216;2023-04-19T03:02:49;102699.50;;;9.24;71.34
1207;BME280;593;53.184;8.216;2023-04-19T03:05:15;102716.00;;;9.23;71.58
1207;BME280;593;53.184;8.216;2023-04-19T03:07:41;102703.47;;;9.22;71.04
1207;BME280;593;53.184;8.216;2023-04-19T03:10:07;102697.91;;;9.17;71.72
1207;BME280;593;53.184;8.216;2023-04-19T03:12:32;102703.75;;;9.14;71.60
1207;BME280;593;53.184;8.216;2023-04-19T03:14:58;102703.00;;;9.07;71.43
1207;BME280;593;53.184;8.216;2023-04-19T03:17:23;102705.06;;;9.04;71.70
1207;BME280;593;53.184;8.216;2023-04-19T03:19:48;102697.41;;;9.01;71.33
1207;BME280;593;53.184;8.216;2023-04-19T03:22:14;102695.97;;;8.99;72.05
1207;BME280;593;53.184;8.216;2023-04-19T03:24:39;102701.75;;;9.02;71.40
1207;BME280;593;53.184;8.216;2023-04-19T03:27:05;102692.16;;;9.00;72.30
1207;BME280;593;53.184;8.216;2023-04-19T03:29:31;102691.56;;;8.98;71.90
1207;BME280;593;53.184;8.216;2023-04-19T03:31:56;102692.25;;;8.93;72.48
1207;BME280;593;53.184;8.216;2023-04-19T03:34:21;102697.66;;;8.93;71.53
1207;BME280;593;53.184;8.216;2023-04-19T03:36:47;102694.13;;;8.93;71.80
1207;BME280;593;53.184;8.216;2023-04-19T03:39:12;102688.94;;;8.91;72.80
1207;BME280;593;53.184;8.216;2023-04-19T03:41:39;102693.50;;;8.91;72.82
1207;BME280;593;53.184;8.216;2023-04-19T03:44:04;102687.47;;;8.89;73.05
1207;BME280;593;53.184;8.216;2023-04-19T03:46:30;102684.97;;;8.87;72.51
1207;BME280;593;53.184;8.216;2023-04-19T03:48:56;102682.69;;;8.84;72.98
1207;BME280;593;53.184;8.216;2023-04-19T03:51:21;102685.41;;;8.84;72.98
1207;BME280;593;53.184;8.216;2023-04-19T03:53:47;102685.63;;;8.83;73.23
1207;BME280;593;53.184;8.216;2023-04-19T03:56:12;102689.63;;;8.80;72.68
1207;BME280;593;53.184;8.216;2023-04-19T03:58:37;102684.63;;;8.77;72.98
1207;BME280;593;53.184;8.216;2023-04-19T04:01:03;102690.06;;;8.77;73.26
1207;BME280;593;53.184;8.216;2023-04-19T04:03:29;102692.16;;;8.75;72.95
1207;BME280;593;53.184;8.216;2023-04-19T04:05:54;102694.28;;;8.73;73.72
1207;BME280;593;53.184;8.216;2023-04-19T04:08:19;102692.84;;;8.71;73.74
1207;BME280;593;53.184;8.216;2023-04-19T04:10:45;102685.97;;;8.68;73.53
1207;BME280;593;53.184;8.216;2023-04-19T04:13:10;102688.06;;;8.66;73.19
1207;BME280;593;53.184;8.216;2023-04-19T04:15:35;102703.50;;;8.66;73.51
1207;BME280;593;53.184;8.216;2023-04-19T04:18:01;102691.03;;;8.58;73.70
1207;BME280;593;53.184;8.216;2023-04-19T04:20:26;102697.31;;;8.59;73.94
1207;BME280;593;53.184;8.216;2023-04-19T04:22:51;102687.13;;;8.54;73.68
1207;BME280;593;53.184;8.216;2023-04-19T04:25:17;102698.78;;;8.55;73.88
1207;BME280;593;53.184;8.216;2023-04-19T04:27:43;102692.97;;;8.51;73.89
1207;BME280;593;53.184;8.216;2023-04-19T04:30:09;102694.69;;;8.46;73.43
1207;BME280;593;53.184;8.216;2023-04-19T04:32:36;102699.06;;;8.47;73.49
1207;BME280;593;53.184;8.216;2023-04-19T04:35:04;102701.13;;;8.45;73.49
1207;BME280;593;53.184;8.216;2023-04-19T04:37:31;102701.41;;;8.36;74.30
1207;BME280;593;53.184;8.216;2023-04-19T04:39:58;102704.94;;;8.37;74.13
1207;BME280;593;53.184;8.216;2023-04-19T04:42:24;102699.31;;;8.38;73.57
1207;BME280;593;53.184;8.216;2023-04-19T04:44:49;102702.44;;;8.35;73.10
1207;BME280;593;53.184;8.216;2023-04-19T04:47:15;102710.81;;;8.34;73.73
1207;BME280;593;53.184;8.216;2023-04-19T04:49:41;102706.44;;;8.33;73.02
1207;BME280;593;53.184;8.216;2023-04-19T04:52:06;102707.69;;;8.30;73.46
1207;BME280;593;53.184;8.216;2023-04-19T04:54:33;102708.13;;;8.27;73.29
1207;BME280;593;53.184;8.216;2023-04-19T04:56:58;102689.34;;;8.19;73.43
1207;BME280;593;53.184;8.216;2023-04-19T04:59:23;102703.94;;;8.25;73.76
1207;BME280;593;53.184;8.216;2023-04-19T05:01:49;102707.91;;;8.22;73.39
1207;BME280;593;53.184;8.216;2023-04-19T05:04:14;102693.97;;;8.19;73.46
1207;BME280;593;53.184;8.216;2023-04-19T05:06:39;102695.25;;;8.16;73.41
1207;BME280;593;53.184;8.216;2023-04-19T05:09:05;102698.16;;;8.15;73.53
1207;BME280;593;53.184;8.216;2023-04-19T05:11:31;102698.16;;;8.15;73.80
1207;BME280;593;53.184;8.216;2023-04-19T05:13:57;102702.91;;;8.19;72.93
1207;BME280;593;53.184;8.216;2023-04-19T05:16:22;102702.09;;;8.19;74.40
1207;BME280;593;53.184;8.216;2023-04-19T05:18:47;102693.78;;;8.14;74.01
1207;BME280;593;53.184;8.216;2023-04-19T05:21:14;102691.69;;;8.16;73.87
1207;BME280;593;53.184;8.216;2023-04-19T05:23:40;102695.00;;;8.18;73.85
1207;BME280;593;53.184;8.216;2023-04-19T05:26:05;102688.97;;;8.16;73.39
1207;BME280;593;53.184;8.216;2023-04-19T05:28:30;102691.69;;;8.16;74.35
1207;BME280;593;53.184;8.216;2023-04-19T05:30:56;102687.31;;;8.15;73.27
1207;BME280;593;53.184;8.216;2023-04-19T05:33:24;102689.16;;;8.21;73.30
1207;BME280;593;53.184;8.216;2023-04-19T05:35:49;102696.88;;;8.24;72.91
1207;BME280;593;53.184;8.216;2023-04-19T05:38:15;102701.22;;;8.25;73.06
1207;BME280;593;53.184;8.216;2023-04-19T05:40:43;102691.44;;;8.24;72.33
1207;BME280;593;53.184;8.216;2023-04-19T05:43:08;102691.03;;;8.27;72.12
1207;BME280;593;53.184;8.216;2023-04-19T05:45:33;102696.84;;;8.30;72.36
1207;BME280;593;53.184;8.216;2023-04-19T05:47:58;102704.56;;;8.33;72.59
1207;BME280;593;53.184;8.216;2023-04-19T05:50:24;102704.72;;;8.38;71.49
1207;BME280;593;53.184;8.216;2023-04-19T05:52:49;102703.47;;;8.41;71.49
1207;BME280;593;53.184;8.216;2023-04-19T05:55:14;102708.00;;;8.47;71.58
1207;BME280;593;53.184;8.216;2023-04-19T05:57:40;102706.72;;;8.50;71.93
1207;BME280;593;53.184;8.216;2023-04-19T06:00:06;102703.59;;;8.53;71.11
1207;BME280;593;53.184;8.216;2023-04-19T06:02:33;102699.19;;;8.58;70.87
1207;BME280;593;53.184;8.216;2023-04-19T06:04:58;102699.78;;;8.60;71.18
1207;BME280;593;53.184;8.216;2023-04-19T06:07:24;102695.19;;;8.61;70.09
1207;BME280;593;53.184;8.216;2023-04-19T06:09:49;102707.25;;;8.71;70.05
1207;BME280;593;53.184;8.216;2023-04-19T06:12:14;102700.53;;;8.74;69.83
1207;BME280;593;53.184;8.216;2023-04-19T06:14:40;102697.16;;;8.78;69.69
1207;BME280;593;53.184;8.216;2023-04-19T06:17:05;102702.75;;;8.83;69.67
1207;BME280;593;53.184;8.216;2023-04-19T06:19:30;102700.81;;;8.90;69.55
1207;BME280;593;53.184;8.216;2023-04-19T06:21:58;102697.59;;;9.00;69.11
1207;BME280;593;53.184;8.216;2023-04-19T06:24:24;102711.94;;;9.07;68.70
1207;BME280;593;53.184;8.216;2023-04-19T06:26:49;102711.31;;;9.12;69.02
1207;BME280;593;53.184;8.216;2023-04-19T06:29:15;102703.94;;;9.19;68.18
1207;BME280;593;53.184;8.216;2023-04-19T06:31:40;102696.97;;;9.23;68.22
1207;BME280;593;53.184;8.216;2023-04-19T06:34:05;102709.41;;;9.37;67.72
1207;BME280;593;53.184;8.216;2023-04-19T06:36:31;102706.00;;;9.41;67.88
1207;BME280;593;53.184;8.216;2023-04-19T06:38:57;102704.41;;;9.52;67.72
1207;BME280;593;53.184;8.216;2023-04-19T06:41:22;102701.63;;;9.58;66.23
1207;BME280;593;53.184;8.216;2023-04-19T06:43:48;102706.09;;;9.71;66.47
1207;BME280;593;53.184;8.216;2023-04-19T06:46:13;102700.28;;;9.86;66.16
1207;BME280;593;53.184;8.216;2023-04-19T06:48:38;102700.56;;;9.96;65.82
1207;BME280;593;53.184;8.216;2023-04-19T06:51:04;102689.59;;;10.02;64.51
1207;BME280;593;53.184;8.216;2023-04-19T06:53:30;102700.88;;;10.24;64.92
1207;BME280;593;53.184;8.216;2023-04-19T06:55:58;102699.88;;;10.37;63.24
1207;BME280;593;53.184;8.216;2023-04-19T06:58:25;102706.75;;;10.51;62.76
1207;BME280;593;53.184;8.216;2023-04-19T07:00:51;102706.19;;;10.60;62.83
1207;BME280;593;53.184;8.216;2023-04-19T07:03:16;102694.53;;;10.71;61.79
1207;BME280;593;53.184;8.216;2023-04-19T07:05:42;102697.72;;;10.80;60.18
1207;BME280;593;53.184;8.216;2023-04-19T07:08:07;102695.97;;;10.85;59.08
1207;BME280;593;53.184;8.216;2023-04-19T07:10:32;102693.03;;;10.99;58.07
1207;BME280;593;53.184;8.216;2023-04-19T07:12:58;102700.16;;;11.11;57.41
1207;BME280;593;53.184;8.216;2023-04-19T07:15:23;102692.34;;;11.15;58.30
1207;BME280;593;53.184;8.216;2023-04-19T07:17:49;102698.84;;;11.25;57.33
1207;BME280;593;53.184;8.216;2023-04-19T07:20:14;102698.84;;;11.37;57.22
1207;BME280;593;53.184;8.216;2023-04-19T07:22:40;102688.28;;;11.40;56.26
1207;BME280;593;53.184;8.216;2023-04-19T07:25:05;102700.50;;;11.49;55.87
1207;BME280;593;53.184;8.216;2023-04-19T07:27:31;102689.94;;;11.53;56.07
1207;BME280;593;53.184;8.216;2023-04-19T07:29:56;102694.44;;;11.59;55.01
1207;BME280;593;53.184;8.216;2023-04-19T07:32:21;102687.69;;;11.62;54.43
1207;BME280;593;53.184;8.216;2023-04-19T07:34:46;102692.81;;;11.70;54.10
1207;BME280;593;53.184;8.216;2023-04-19T07:37:12;102692.19;;;11.79;53.96
1207;BME280;593;53.184;8.216;2023-04-19T07:39:38;102688.16;;;11.82;54.28
1207;BME280;593;53.184;8.216;2023-04-19T07:42:03;102686.97;;;11.89;54.18
1207;BME280;593;53.184;8.216;2023-04-19T07:44:29;102692.16;;;11.91;53.57
1207;BME280;593;53.184;8.216;2023-04-19T07:46:54;102681.41;;;11.84;54.06
1207;BME280;593;53.184;8.216;2023-04-19T07:49:20;102682.72;;;11.82;53.44
1207;BME280;593;53.184;8.216;2023-04-19T07:51:45;102678.78;;;11.89;53.43
1207;BME280;593;53.184;8.216;2023-04-19T07:54:10;102681.94;;;11.98;53.84
1207;BME280;593;53.184;8.216;2023-04-19T07:56:36;102682.03;;;12.03;53.08
1207;BME280;593;53.184;8.216;2023-04-19T07:59:02;102682.13;;;12.08;52.85
1207;BME280;593;53.184;8.216;2023-04-19T08:01:28;102670.50;;;12.12;53.11
1207;BME280;593;53.184;8.216;2023-04-19T08:03:54;102666.88;;;12.07;53.35
1207;BME280;593;53.184;8.216;2023-04-19T08:06:19;102677.72;;;12.18;53.19
1207;BME280;593;53.184;8.216;2023-04-19T08:08:46;102672.84;;;12.20;52.85
1207;BME280;593;53.184;8.216;2023-04-19T08:11:11;102673.19;;;12.24;52.94
1207;BME280;593;53.184;8.216;2023-04-19T08:13:36;102684.94;;;12.25;52.09
1207;BME280;593;53.184;8.216;2023-04-19T08:16:02;102669.88;;;12.22;52.28
1207;BME280;593;53.184;8.216;2023-04-19T08:18:27;102671.53;;;12.23;52.71
1207;BME280;593;53.184;8.216;2023-04-19T08:20:52;102666.31;;;12.21;53.09
1207;BME280;593;53.184;8.216;2023-04-19T08:23:18;102662.59;;;12.28;52.19
1207;BME280;593;53.184;8.216;2023-04-19T08:25:43;102660.97;;;12.27;52.21
1207;BME280;593;53.184;8.216;2023-04-19T08:28:08;102662.94;;;12.31;52.12
1207;BME280;593;53.184;8.216;2023-04-19T08:30:34;102652.88;;;12.32;51.37
1207;BME280;593;53.184;8.216;2023-04-19T08:32:59;102659.66;;;12.29;50.75
1207;BME280;593;53.184;8.216;2023-04-19T08:35:25;102664.09;;;12.35;51.41
1207;BME280;593;53.184;8.216;2023-04-19T08:37:51;102654.94;;;12.41;51.51
1207;BME280;593;53.184;8.216;2023-04-19T08:40:16;102637.75;;;12.41;52.16
1207;BME280;593;53.184;8.216;2023-04-19T08:42:42;102636.34;;;12.38;51.38
1207;BME280;593;53.184;8.216;2023-04-19T08:45:08;102647.13;;;12.45;51.63
1207;BME280;593;53.184;8.216;2023-04-19T08:47:38;102635.53;;;12.54;50.79
1207;BME280;593;53.184;8.216;2023-04-19T08:50:05;102637.25;;;12.60;50.51
1207;BME280;593;53.184;8.216;2023-04-19T08:52:34;102647.69;;;12.63;50.85
1207;BME280;593;53.184;8.216;2023-04-19T08:55:02;102640.69;;;12.67;50.47
1207;BME280;593;53.184;8.216;2023-04-19T08:57:33;102651.91;;;12.71;51.27
1207;BME280;593;53.184;8.216;2023-04-19T08:59:59;102632.88;;;12.76;51.32
1207;BME280;593;53.184;8.216;2023-04-19T09:02:25;102629.19;;;12.82;50.86
1207;BME280;593;53.184;8.216;2023-04-19T09:04:50;102626.75;;;12.85;50.61
1207;BME280;593;53.184;8.216;2023-04-19T09:07:26;102621.38;;;12.91;50.52
1207;BME280;593;53.184;8.216;2023-04-19T09:10:11;102629.84;;;12.89;49.52
1207;BME280;593;53.184;8.216;2023-04-19T09:12:38;102628.00;;;12.95;48.24
1207;BME280;593;53.184;8.216;2023-04-19T09:15:05;102620.38;;;12.97;47.28
1207;BME280;593;53.184;8.216;2023-04-19T09:17:33;102626.09;;;12.95;46.75
1207;BME280;593;53.184;8.216;2023-04-19T09:19:59;102615.50;;;12.99;46.55
1207;BME280;593;53.184;8.216;2023-04-19T09:22:24;102595.22;;;12.95;46.64
1207;BME280;593;53.184;8.216;2023-04-19T09:24:50;102612.84;;;13.04;46.38
1207;BME280;593;53.184;8.216;2023-04-19T09:27:30;102600.69;;;12.95;45.81
1207;BME280;593;53.184;8.216;2023-04-19T09:29:59;102606.31;;;13.05;46.06
1207;BME280;593;53.184;8.216;2023-04-19T09:32:25;102591.75;;;12.99;46.29
1207;BME280;593;53.184;8.216;2023-04-19T09:37:21;102584.28;;;13.11;45.79
1207;BME280;593;53.184;8.216;2023-04-19T09:39:46;102580.72;;;13.11;45.33
1207;BME280;593;53.184;8.216;2023-04-19T09:42:12;102580.56;;;13.17;44.69
1207;BME280;593;53.184;8.216;2023-04-19T09:44:38;102565.56;;;13.20;45.64
1207;BME280;593;53.184;8.216;2023-04-19T09:47:20;102565.72;;;13.30;45.37
1207;BME280;593;53.184;8.216;2023-04-19T09:49:46;102567.66;;;13.34;46.17
1207;BME280;593;53.184;8.216;2023-04-19T09:52:13;102563.66;;;13.42;46.46
1207;BME280;593;53.184;8.216;2023-04-19T09:54:40;102560.72;;;13.48;44.54
1207;BME280;593;53.184;8.216;2023-04-19T09:57:06;102552.47;;;13.43;42.65
1207;BME280;593;53.184;8.216;2023-04-19T09:59:32;102563.91;;;13.40;42.80
1207;BME280;593;53.184;8.216;2023-04-19T10:01:58;102557.16;;;13.48;43.15
1207;BME280;593;53.184;8.216;2023-04-19T10:04:25;102546.56;;;13.52;43.30
1207;BME280;593;53.184;8.216;2023-04-19T10:06:53;102548.84;;;13.60;43.07
1207;BME280;593;53.184;8.216;2023-04-19T10:09:20;102538.75;;;13.60;44.69
1207;BME280;593;53.184;8.216;2023-04-19T10:11:50;102553.31;;;13.71;44.56
1207;BME280;593;53.184;8.216;2023-04-19T10:14:20;102532.56;;;13.70;45.06
1207;BME280;593;53.184;8.216;2023-04-19T10:16:46;102541.88;;;13.74;45.29
1207;BME280;593;53.184;8.216;2023-04-19T10:19:13;102549.31;;;13.78;44.40
1207;BME280;593;53.184;8.216;2023-04-19T10:21:43;102535.69;;;13.83;44.93
1207;BME280;593;53.184;8.216;2023-04-19T10:24:14;102528.88;;;13.86;44.82
1207;BME280;593;53.184;8.216;2023-04-19T10:27:08;102526.13;;;13.86;45.22
1207;BME280;593;53.184;8.216;2023-04-19T10:32:16;102519.28;;;13.83;44.29
1207;BME280;593;53.184;8.216;2023-04-19T10:34:42;102507.88;;;13.91;45.81
1207;BME280;593;53.184;8.216;2023-04-19T10:37:12;102509.78;;;13.91;45.75
1207;BME280;593;53.184;8.216;2023-04-19T10:39:39;102501.63;;;13.96;46.09
1207;BME280;593;53.184;8.216;2023-04-19T10:42:05;102501.66;;;14.01;46.71
1207;BME280;593;53.184;8.216;2023-04-19T10:44:31;102485.56;;;14.04;45.65
1207;BME280;593;53.184;8.216;2023-04-19T10:46:57;102475.41;;;14.00;45.79
1207;BME280;593;53.184;8.216;2023-04-19T10:49:23;102474.34;;;14.06;45.53
1207;BME280;593;53.184;8.216;2023-04-19T10:51:49;102482.88;;;14.09;44.47
1207;BME280;593;53.184;8.216;2023-04-19T10:54:26;102456.38;;;14.15;43.72
1207;BME280;593;53.184;8.216;2023-04-19T10:57:03;102471.19;;;14.19;42.90
1207;BME280;593;53.184;8.216;2023-04-19T10:59:31;102458.47;;;14.08;41.48
1207;BME280;593;53.184;8.216;2023-04-19T11:02:00;102459.66;;;14.17;41.42
1207;BME280;593;53.184;8.216;2023-04-19T11:10:06;102451.78;;;14.26;41.42
1207;BME280;593;53.184;8.216;2023-04-19T11:12:14;102434.38;;;14.37;40.50
1207;BME280;593;53.184;8.216;2023-04-19T11:17:17;102432.16;;;14.34;41.52
1207;BME280;593;53.184;8.216;2023-04-19T11:20:01;102441.00;;;14.46;42.54
1207;BME280;593;53.184;8.216;2023-04-19T11:22:44;102417.75;;;14.53;41.70
1207;BME280;593;53.184;8.216;2023-04-19T11:27:41;102414.78;;;14.55;42.03
1207;BME280;593;53.184;8.216;2023-04-19T11:30:16;102413.16;;;14.59;41.86
1207;BME280;593;53.184;8.216;2023-04-19T11:35:12;102404.69;;;14.65;40.38
1207;BME280;593;53.184;8.216;2023-04-19T11:37:38;102394.03;;;14.69;41.01
1207;BME280;593;53.184;8.216;2023-04-19T11:40:06;102397.63;;;14.74;41.71
1207;BME280;593;53.184;8.216;2023-04-19T11:42:33;102393.50;;;14.72;40.90
1207;BME280;593;53.184;8.216;2023-04-19T11:44:59;102397.84;;;14.68;40.86
1207;BME280;593;53.184;8.216;2023-04-19T11:47:27;102384.69;;;14.60;40.03
1207;BME280;593;53.184;8.216;2023-04-19T11:49:56;102396.75;;;14.64;40.34
1207;BME280;593;53.184;8.216;2023-04-19T11:52:47;102397.56;;;14.64;40.37
1207;BME280;593;53.184;8.216;2023-04-19T11:55:19;102379.78;;;14.67;41.56
1207;BME280;593;53.184;8.216;2023-04-19T11:57:46;102383.91;;;14.74;41.08
1207;BME280;593;53.184;8.216;2023-04-19T12:00:12;102384.19;;;14.78;40.37
1207;BME280;593;53.184;8.216;2023-04-19T12:02:42;102387.53;;;14.90;42.13
1207;BME280;593;53.184;8.216;2023-04-19T12:05:13;102379.31;;;14.90;41.77
1207;BME280;593;53.184;8.216;2023-04-19T12:10:26;102370.53;;;14.93;40.70
1207;BME280;593;53.184;8.216;2023-04-19T12:12:51;102358.81;;;14.98;40.78
1207;BME280;593;53.184;8.216;2023-04-19T12:15:17;102375.78;;;15.00;39.61
1207;BME280;593;53.184;8.216;2023-04-19T12:18:01;102352.47;;;14.92;39.28
1207;BME280;593;53.184;8.216;2023-04-19T12:20:34;102361.50;;;14.88;39.83
1207;BME280;593;53.184;8.216;2023-04-19T12:23:00;102352.47;;;14.87;39.83
1207;BME280;593;53.184;8.216;2023-04-19T12:25:30;102331.41;;;15.03;42.48
1207;BME280;593;53.184;8.216;2023-04-19T12:27:56;102345.69;;;15.20;41.74
1207;BME280;593;53.184;8.216;2023-04-19T12:30:22;102349.81;;;15.27;41.98
1207;BME280;593;53.184;8.216;2023-04-19T12:32:47;102357.22;;;15.27;40.48
1207;BME280;593;53.184;8.216;2023-04-19T12:35:13;102353.66;;;15.36;40.13
1207;BME280;593;53.184;8.216;2023-04-19T12:37:38;102363.22;;;15.24;37.89
1207;BME280;593;53.184;8.216;2023-04-19T12:40:04;102347.06;;;15.27;40.33
1207;BME280;593;53.184;8.216;2023-04-19T12:42:29;102357.75;;;15.29;37.77
1207;BME280;593;53.184;8.216;2023-04-19T12:44:54;102345.94;;;15.23;39.68
1207;BME280;593;53.184;8.216;2023-04-19T12:47:20;102328.72;;;15.33;40.12
1207;BME280;593;53.184;8.216;2023-04-19T12:49:45;102332.03;;;15.50;42.02
1207;BME280;593;53.184;8.216;2023-04-19T12:52:10;102328.75;;;15.48;40.24
1207;BME280;593;53.184;8.216;2023-04-19T12:54:36;102321.31;;;15.49;38.55
1207;BME280;593;53.184;8.216;2023-04-19T12:57:01;102327.34;;;15.56;40.34
1207;BME280;593;53.184;8.216;2023-04-19T12:59:26;102308.72;;;15.58;39.30
1207;BME280;593;53.184;8.216;2023-04-19T13:01:51;102312.53;;;15.67;38.50
1207;BME280;593;53.184;8.216;2023-04-19T13:04:17;102321.06;;;15.65;37.87
1207;BME280;593;53.184;8.216;2023-04-19T13:06:42;102299.13;;;15.60;37.94
1207;BME280;593;53.184;8.216;2023-04-19T13:09:07;102319.41;;;15.64;37.88
1207;BME280;593;53.184;8.216;2023-04-19T13:11:33;102309.50;;;15.63;35.17
1207;BME280;593;53.184;8.216;2023-04-19T13:13:58;102312.53;;;15.67;39.39
1207;BME280;593;53.184;8.216;2023-04-19T13:16:24;102299.66;;;15.72;36.31
1207;BME280;593;53.184;8.216;2023-04-19T13:18:49;102297.16;;;15.81;39.28
1207;BME280;593;53.184;8.216;2023-04-19T13:21:16;102311.97;;;15.80;36.14
1207;BME280;593;53.184;8.216;2023-04-19T13:23:42;102294.16;;;15.82;36.20
1207;BME280;593;53.184;8.216;2023-04-19T13:26:08;102307.03;;;15.77;35.53
1207;BME280;593;53.184;8.216;2023-04-19T13:28:34;102290.03;;;15.80;36.69
1207;BME280;593;53.184;8.216;2023-04-19T13:31:00;102294.41;;;15.81;34.27
1207;BME280;593;53.184;8.216;2023-04-19T13:33:25;102281.25;;;15.78;33.37
1207;BME280;593;53.184;8.216;2023-04-19T13:35:50;102276.03;;;15.81;36.14
1207;BME280;593;53.184;8.216;2023-04-19T13:38:16;102279.03;;;15.90;35.50
1207;BME280;593;53.184;8.216;2023-04-19T13:40:43;102271.59;;;16.06;37.26
1207;BME280;593;53.184;8.216;2023-04-19T13:43:08;102274.09;;;15.92;32.90